createdAt,value
2023-04-18T00:00:26.875Z,26.71
2023-04-18T00:01:26.901Z,26.67
2023-04-18T00:02:27.008Z,26.69
2023-04-18T00:03:27.181Z,26.64
2023-04-18T00:04:27.221Z,26.73
2023-04-18T00:05:27.084Z,26.67
2023-04-18T00:06:27.029Z,26.67
2023-04-18T00:07:27.094Z,26.71
2023-04-18T00:08:27.090Z,26.68
2023-04-18T00:09:27.148Z,26.69
2023-04-18T00:10:27.163Z,26.65
2023-04-18T00:11:27.165Z,26.64
2023-04-18T00:12:27.214Z,26.68
2023-04-18T00:13:27.212Z,26.64
2023-04-18T00:14:27.263Z,26.68
2023-04-18T00:15:27.286Z,26.71
2023-04-18T00:16:27.424Z,26.68
2023-04-18T00:17:27.379Z,26.71
2023-04-18T00:18:27.365Z,26.69
2023-04-18T00:19:27.358Z,26.72
2023-04-18T00:20:27.395Z,26.65
2023-04-18T00:21:27.417Z,26.68
2023-04-18T00:22:27.422Z,26.67
2023-04-18T00:23:27.453Z,26.69
2023-04-18T00:24:27.513Z,26.63
2023-04-18T00:25:27.525Z,26.67
2023-04-18T00:26:27.551Z,26.65
2023-04-18T00:27:27.537Z,26.71
2023-04-18T00:28:27.621Z,26.67
2023-04-18T00:29:27.631Z,26.64
2023-04-18T00:30:27.633Z,26.64
2023-04-18T00:31:27.789Z,26.67
2023-04-18T00:32:27.714Z,26.65
2023-04-18T00:33:27.787Z,26.63
2023-04-18T00:34:27.732Z,26.65
2023-04-18T00:35:27.779Z,26.67
2023-04-18T00:36:27.803Z,26.65
2023-04-18T00:37:27.828Z,26.65
2023-04-18T00:38:27.856Z,26.68
2023-04-18T00:39:27.864Z,26.65
2023-04-18T00:40:27.904Z,26.58
2023-04-18T00:41:27.925Z,26.63
2023-04-18T00:42:27.954Z,26.64
2023-04-18T00:43:27.981Z,26.63
2023-04-18T00:44:27.989Z,26.65
2023-04-18T00:45:27.992Z,26.64
2023-04-18T00:46:28.060Z,26.60
2023-04-18T00:47:28.170Z,26.59
2023-04-18T00:48:28.085Z,26.65
2023-04-18T00:49:28.108Z,26.64
2023-04-18T00:50:28.126Z,26.64
2023-04-18T00:51:28.159Z,26.58
2023-04-18T00:52:28.175Z,26.62
2023-04-18T00:53:28.235Z,26.65
2023-04-18T00:54:28.257Z,26.63
2023-04-18T00:55:28.264Z,26.65
2023-04-18T00:56:28.294Z,26.67
2023-04-18T00:57:28.298Z,26.61
2023-04-18T00:58:28.300Z,26.58
2023-04-18T00:59:28.362Z,26.65
2023-04-18T01:00:28.382Z,26.61
2023-04-18T01:01:28.466Z,26.61
2023-04-18T01:02:28.495Z,26.61
2023-04-18T01:03:28.560Z,26.61
2023-04-18T01:04:28.550Z,26.63
2023-04-18T01:05:28.524Z,26.61
2023-04-18T01:06:28.540Z,26.64
2023-04-18T01:07:28.529Z,26.63
2023-04-18T01:08:28.580Z,26.62
2023-04-18T01:09:28.619Z,26.64
2023-04-18T01:10:28.652Z,26.65
2023-04-18T01:11:28.677Z,26.62
2023-04-18T01:12:28.720Z,26.60
2023-04-18T01:13:28.725Z,26.62
2023-04-18T01:14:28.771Z,26.60
2023-04-18T01:15:28.781Z,26.63
2023-04-18T01:16:28.881Z,26.62
2023-04-18T01:17:28.873Z,26.62
2023-04-18T01:18:28.842Z,26.60
2023-04-18T01:19:28.889Z,26.60
2023-04-18T01:20:28.896Z,26.60
2023-04-18T01:21:28.919Z,26.57
2023-04-18T01:22:28.982Z,26.60
2023-04-18T01:23:28.994Z,26.60
2023-04-18T01:24:29.026Z,26.59
2023-04-18T01:25:29.054Z,26.62
2023-04-18T01:26:29.082Z,26.57
2023-04-18T01:27:29.119Z,26.60
2023-04-18T01:28:29.116Z,26.58
2023-04-18T01:29:29.150Z,26.58
2023-04-18T01:30:29.164Z,26.61
2023-04-18T01:31:29.266Z,26.61
2023-04-18T01:32:29.265Z,26.62
2023-04-18T01:33:29.250Z,26.55
2023-04-18T01:34:29.302Z,26.54
2023-04-18T01:35:29.345Z,26.55
2023-04-18T01:36:29.363Z,26.52
2023-04-18T01:37:29.348Z,26.55
2023-04-18T01:38:29.437Z,26.57
2023-04-18T01:39:29.462Z,26.59
2023-04-18T01:40:29.462Z,26.60
2023-04-18T01:41:29.491Z,26.58
2023-04-18T01:42:29.512Z,26.58
2023-04-18T01:43:29.576Z,26.55
2023-04-18T01:44:29.555Z,26.57
2023-04-18T01:45:29.603Z,26.58
2023-04-18T01:46:29.661Z,26.57
2023-04-18T01:47:29.693Z,26.55
2023-04-18T01:48:29.707Z,26.60
2023-04-18T01:49:29.712Z,26.54
2023-04-18T01:50:29.742Z,26.54
2023-04-18T01:51:29.802Z,26.60
2023-04-18T01:52:29.836Z,26.60
2023-04-18T01:53:29.889Z,26.54
2023-04-18T01:54:29.915Z,26.54
2023-04-18T01:55:29.900Z,26.52
2023-04-18T01:56:29.936Z,26.54
2023-04-18T01:57:29.963Z,26.54
2023-04-18T01:58:30.010Z,26.58
2023-04-18T01:59:30.058Z,26.57
2023-04-18T02:00:30.140Z,26.60
2023-04-18T02:01:30.170Z,26.58
2023-04-18T02:02:30.388Z,26.52
2023-04-18T02:03:30.318Z,26.51
2023-04-18T02:04:30.187Z,26.60
2023-04-18T02:05:30.240Z,26.53
2023-04-18T02:06:30.228Z,26.55
2023-04-18T02:07:30.267Z,26.55
2023-04-18T02:08:30.299Z,26.51
2023-04-18T02:09:30.361Z,26.55
2023-04-18T02:10:30.365Z,26.50
2023-04-18T02:11:30.410Z,26.51
2023-04-18T02:12:30.436Z,26.48
2023-04-18T02:13:30.486Z,26.50
2023-04-18T02:14:30.515Z,26.51
2023-04-18T02:15:30.517Z,26.52
2023-04-18T02:16:30.615Z,26.50
2023-04-18T02:17:30.605Z,26.52
2023-04-18T02:18:30.594Z,26.50
2023-04-18T02:19:30.648Z,26.54
2023-04-18T02:20:30.642Z,26.51
2023-04-18T02:21:30.700Z,26.54
2023-04-18T02:22:30.710Z,26.48
2023-04-18T02:23:30.791Z,26.50
2023-04-18T02:24:30.787Z,26.52
2023-04-18T02:25:30.791Z,26.54
2023-04-18T02:26:30.858Z,26.46
2023-04-18T02:27:30.845Z,26.50
2023-04-18T02:28:30.885Z,26.52
2023-04-18T02:29:30.932Z,26.52
2023-04-18T02:30:30.960Z,26.52
2023-04-18T02:31:31.015Z,26.51
2023-04-18T02:32:31.063Z,26.52
2023-04-18T02:33:31.049Z,26.50
2023-04-18T02:34:31.062Z,26.47
2023-04-18T02:35:31.104Z,26.50
2023-04-18T02:36:31.145Z,26.51
2023-04-18T02:37:31.185Z,26.52
2023-04-18T02:38:31.184Z,26.50
2023-04-18T02:39:31.224Z,26.49
2023-04-18T02:40:31.277Z,26.52
2023-04-18T02:41:31.355Z,26.50
2023-04-18T02:42:31.318Z,26.48
2023-04-18T02:43:31.350Z,26.47
2023-04-18T02:44:31.411Z,26.50
2023-04-18T02:45:31.406Z,26.55
2023-04-18T02:46:31.487Z,26.51
2023-04-18T02:47:37.532Z,26.46
2023-04-18T02:48:32.483Z,26.47
2023-04-18T02:49:31.441Z,26.52
2023-04-18T02:50:31.446Z,26.49
2023-04-18T02:51:31.420Z,26.46
2023-04-18T02:52:31.432Z,26.49
2023-04-18T02:53:31.443Z,26.50
2023-04-18T02:54:31.415Z,26.48
2023-04-18T02:55:31.412Z,26.47
2023-04-18T02:56:31.402Z,26.52
2023-04-18T02:57:31.395Z,26.48
2023-04-18T02:58:31.430Z,26.47
2023-04-18T02:59:31.376Z,26.43
2023-04-18T03:00:31.346Z,26.47
2023-04-18T03:01:31.394Z,26.45
2023-04-18T03:02:32.155Z,26.50
2023-04-18T03:03:31.399Z,26.50
2023-04-18T03:04:31.476Z,26.50
2023-04-18T03:05:31.440Z,26.48
2023-04-18T03:06:31.484Z,26.47
2023-04-18T03:07:31.543Z,26.46
2023-04-18T03:08:31.583Z,26.48
2023-04-18T03:09:31.596Z,26.43
2023-04-18T03:10:31.633Z,26.46
2023-04-18T03:11:31.685Z,26.46
2023-04-18T03:12:31.721Z,26.46
2023-04-18T03:13:31.766Z,26.47
2023-04-18T03:14:31.806Z,26.41
2023-04-18T03:15:31.889Z,26.48
2023-04-18T03:16:31.854Z,26.45
2023-04-18T03:17:31.911Z,26.47
2023-04-18T03:18:31.952Z,26.47
2023-04-18T03:19:31.983Z,26.52
2023-04-18T03:20:31.995Z,26.45
2023-04-18T03:21:32.015Z,26.47
2023-04-18T03:22:32.060Z,26.44
2023-04-18T03:23:32.098Z,26.48
2023-04-18T03:24:32.163Z,26.45
2023-04-18T03:25:32.199Z,26.46
2023-04-18T03:26:32.186Z,26.46
2023-04-18T03:27:32.216Z,26.47
2023-04-18T03:28:32.276Z,26.42
2023-04-18T03:29:32.329Z,26.47
2023-04-18T03:30:32.342Z,26.43
2023-04-18T03:31:32.405Z,26.46
2023-04-18T03:32:32.412Z,26.48
2023-04-18T03:33:32.452Z,26.45
2023-04-18T03:34:32.485Z,26.42
2023-04-18T03:35:32.498Z,26.45
2023-04-18T03:36:32.567Z,26.52
2023-04-18T03:37:32.607Z,26.42
2023-04-18T03:38:32.616Z,26.45
2023-04-18T03:39:32.696Z,26.47
2023-04-18T03:40:32.688Z,26.44
2023-04-18T03:41:32.719Z,26.44
2023-04-18T03:42:32.778Z,26.46
2023-04-18T03:43:32.790Z,26.45
2023-04-18T03:44:32.802Z,26.50
2023-04-18T03:45:32.836Z,26.47
2023-04-18T03:46:33.005Z,26.43
2023-04-18T03:47:32.947Z,26.42
2023-04-18T03:48:32.945Z,26.42
2023-04-18T03:49:32.993Z,26.40
2023-04-18T03:50:33.044Z,26.38
2023-04-18T03:51:33.053Z,26.39
2023-04-18T03:52:33.081Z,26.46
2023-04-18T03:53:33.092Z,26.43
2023-04-18T03:54:33.115Z,26.40
2023-04-18T03:55:33.161Z,26.40
2023-04-18T03:56:33.247Z,26.43
2023-04-18T03:57:33.239Z,26.41
2023-04-18T03:58:33.252Z,26.36
2023-04-18T03:59:33.301Z,26.39
2023-04-18T04:00:33.349Z,26.39
2023-04-18T04:01:33.504Z,26.42
2023-04-18T04:02:33.520Z,26.43
2023-04-18T04:03:33.484Z,26.38
2023-04-18T04:04:33.510Z,26.38
2023-04-18T04:05:33.462Z,26.44
2023-04-18T04:06:33.513Z,26.37
2023-04-18T04:07:33.560Z,26.40
2023-04-18T04:08:33.569Z,26.39
2023-04-18T04:09:33.623Z,26.32
2023-04-18T04:10:33.658Z,26.39
2023-04-18T04:11:33.688Z,26.41
2023-04-18T04:12:33.747Z,26.39
2023-04-18T04:13:33.753Z,26.40
2023-04-18T04:14:33.793Z,26.39
2023-04-18T04:15:33.792Z,26.45
2023-04-18T04:16:33.885Z,26.41
2023-04-18T04:17:33.904Z,26.43
2023-04-18T04:18:33.906Z,26.40
2023-04-18T04:19:33.959Z,26.40
2023-04-18T04:20:33.952Z,26.37
2023-04-18T04:21:33.973Z,26.40
2023-04-18T04:22:34.045Z,26.38
2023-04-18T04:23:34.033Z,26.42
2023-04-18T04:24:34.123Z,26.40
2023-04-18T04:25:34.142Z,26.39
2023-04-18T04:26:34.164Z,26.40
2023-04-18T04:27:34.186Z,26.39
2023-04-18T04:28:34.227Z,26.39
2023-04-18T04:29:34.317Z,26.35
2023-04-18T04:30:34.350Z,26.40
2023-04-18T04:31:34.385Z,26.38
2023-04-18T04:32:34.410Z,26.42
2023-04-18T04:33:34.560Z,26.41
2023-04-18T04:34:34.502Z,26.39
2023-04-18T04:35:34.514Z,26.36
2023-04-18T04:36:34.566Z,26.33
2023-04-18T04:37:34.566Z,26.40
2023-04-18T04:38:34.613Z,26.40
2023-04-18T04:39:34.707Z,26.39
2023-04-18T04:40:34.703Z,26.37
2023-04-18T04:41:34.741Z,26.37
2023-04-18T04:42:34.772Z,26.42
2023-04-18T04:43:34.820Z,26.39
2023-04-18T04:44:34.898Z,26.39
2023-04-18T04:45:34.897Z,26.43
2023-04-18T04:46:34.896Z,26.33
2023-04-18T04:47:34.990Z,26.36
2023-04-18T04:48:34.987Z,26.35
2023-04-18T04:49:35.042Z,26.40
2023-04-18T04:50:35.044Z,26.37
2023-04-18T04:51:35.122Z,26.33
2023-04-18T04:52:35.106Z,26.39
2023-04-18T04:53:35.155Z,26.30
2023-04-18T04:54:35.243Z,26.32
2023-04-18T04:55:35.221Z,26.27
2023-04-18T04:56:35.254Z,26.31
2023-04-18T04:57:35.326Z,26.28
2023-04-18T04:58:35.326Z,26.30
2023-04-18T04:59:35.378Z,26.30
2023-04-18T05:00:35.370Z,26.30
2023-04-18T05:01:35.443Z,26.26
2023-04-18T05:02:35.559Z,26.26
2023-04-18T05:03:35.626Z,26.24
2023-04-18T05:04:35.594Z,26.29
2023-04-18T05:05:35.555Z,26.23
2023-04-18T05:06:35.586Z,26.27
2023-04-18T05:07:35.586Z,26.23
2023-04-18T05:08:35.659Z,26.23
2023-04-18T05:09:35.709Z,26.25
2023-04-18T05:10:35.681Z,26.25
2023-04-18T05:11:35.759Z,26.25
2023-04-18T05:12:35.774Z,26.20
2023-04-18T05:13:35.793Z,26.24
2023-04-18T05:14:35.863Z,26.21
2023-04-18T05:15:35.841Z,26.24
2023-04-18T05:16:35.962Z,26.23
2023-04-18T05:17:35.934Z,26.25
2023-04-18T05:18:35.944Z,26.21
2023-04-18T05:19:36.012Z,26.23
2023-04-18T05:20:36.031Z,26.20
2023-04-18T05:21:36.094Z,26.23
2023-04-18T05:22:36.094Z,26.18
2023-04-18T05:23:36.134Z,26.20
2023-04-18T05:24:36.226Z,26.23
2023-04-18T05:25:36.188Z,26.24
2023-04-18T05:26:36.267Z,26.18
2023-04-18T05:27:36.288Z,26.18
2023-04-18T05:28:36.302Z,26.20
2023-04-18T05:29:36.860Z,26.20
2023-04-18T05:30:36.420Z,26.20
2023-04-18T05:31:36.581Z,26.23
2023-04-18T05:32:36.481Z,26.20
2023-04-18T05:33:36.474Z,26.17
2023-04-18T05:34:38.589Z,26.20
2023-04-18T05:35:36.566Z,26.40
2023-04-18T05:36:36.598Z,26.44
2023-04-18T05:37:36.644Z,26.51
2023-04-18T05:38:36.687Z,26.43
2023-04-18T05:39:36.699Z,26.52
2023-04-18T05:40:36.878Z,26.62
2023-04-18T05:41:36.746Z,26.64
2023-04-18T05:42:36.802Z,26.68
2023-04-18T05:43:36.791Z,26.79
2023-04-18T05:44:36.811Z,26.91
2023-04-18T05:45:36.867Z,26.96
2023-04-18T05:46:36.941Z,27.01
2023-04-18T05:47:37.067Z,27.11
2023-04-18T05:48:36.917Z,27.21
2023-04-18T05:49:36.945Z,27.38
2023-04-18T05:50:36.975Z,27.46
2023-04-18T05:51:37.019Z,27.56
2023-04-18T05:52:37.025Z,26.58
2023-04-18T05:53:37.049Z,25.94
2023-04-18T05:54:37.113Z,25.74
2023-04-18T05:55:37.154Z,25.86
2023-04-18T05:56:37.214Z,26.31
2023-04-18T05:57:37.223Z,25.99
2023-04-18T05:58:37.199Z,26.13
2023-04-18T05:59:37.212Z,26.01
2023-04-18T06:00:37.215Z,25.77
2023-04-18T06:01:37.236Z,25.99
2023-04-18T06:02:37.332Z,26.25
2023-04-18T06:03:37.422Z,26.77
2023-04-18T06:04:37.325Z,27.22
2023-04-18T06:05:37.379Z,27.46
2023-04-18T06:06:37.236Z,27.49
2023-04-18T06:07:37.333Z,27.51
2023-04-18T06:08:37.351Z,27.54
2023-04-18T06:09:37.478Z,27.70
2023-04-18T06:10:39.208Z,27.90
2023-04-18T06:11:37.507Z,27.86
2023-04-18T06:12:37.568Z,28.04
2023-04-18T06:13:37.631Z,28.10
2023-04-18T06:14:37.607Z,28.11
2023-04-18T06:15:37.641Z,28.15
2023-04-18T06:16:37.963Z,28.32
2023-04-18T06:17:37.733Z,28.46
2023-04-18T06:18:37.678Z,28.50
2023-04-18T06:19:37.681Z,28.60
2023-04-18T06:20:37.721Z,28.71
2023-04-18T06:21:37.698Z,28.75
2023-04-18T06:22:37.709Z,28.93
2023-04-18T06:23:37.705Z,28.97
2023-04-18T06:24:37.751Z,29.00
2023-04-18T06:25:37.759Z,29.16
2023-04-18T06:26:37.718Z,29.27
2023-04-18T06:27:37.760Z,29.34
2023-04-18T06:28:37.815Z,29.39
2023-04-18T06:29:38.064Z,29.56
2023-04-18T06:30:37.967Z,29.77
2023-04-18T06:31:38.065Z,29.78
2023-04-18T06:32:38.135Z,30.00
2023-04-18T06:33:38.148Z,30.09
2023-04-18T06:34:38.230Z,30.16
2023-04-18T06:35:38.294Z,30.32
2023-04-18T06:36:38.307Z,30.45
2023-04-18T06:37:38.380Z,30.66
2023-04-18T06:38:38.414Z,30.78
2023-04-18T06:39:38.462Z,30.86
2023-04-18T06:40:38.503Z,30.88
2023-04-18T06:41:38.759Z,31.00
2023-04-18T06:42:38.601Z,31.11
2023-04-18T06:43:38.636Z,31.22
2023-04-18T06:44:38.693Z,31.24
2023-04-18T06:45:39.004Z,31.40
2023-04-18T06:46:38.749Z,31.35
2023-04-18T06:47:38.797Z,31.35
2023-04-18T06:48:38.831Z,31.42
2023-04-18T06:49:38.880Z,29.66
2023-04-18T06:50:38.956Z,26.95
2023-04-18T06:51:38.946Z,26.31
2023-04-18T06:52:38.948Z,25.77
2023-04-18T06:53:39.039Z,25.88
2023-04-18T06:54:39.028Z,26.49
2023-04-18T06:55:39.075Z,27.85
2023-04-18T06:56:39.101Z,28.03
2023-04-18T06:57:39.366Z,27.71
2023-04-18T06:58:39.207Z,27.57
2023-04-18T06:59:39.243Z,27.75
2023-04-18T07:00:39.330Z,28.29
2023-04-18T07:01:39.564Z,28.97
2023-04-18T07:02:39.533Z,28.91
2023-04-18T07:03:39.552Z,29.22
2023-04-18T07:04:39.601Z,29.48
2023-04-18T07:05:39.879Z,29.38
2023-04-18T07:06:39.601Z,29.44
2023-04-18T07:07:39.618Z,29.53
2023-04-18T07:08:39.613Z,29.50
2023-04-18T07:09:39.608Z,29.53
2023-04-18T07:10:39.640Z,29.34
2023-04-18T07:11:39.600Z,29.38
2023-04-18T07:12:39.595Z,29.05
2023-04-18T07:13:39.585Z,28.83
2023-04-18T07:14:39.622Z,29.07
2023-04-18T07:15:39.617Z,29.42
2023-04-18T07:16:39.651Z,29.50
2023-04-18T07:17:39.654Z,28.56
2023-04-18T07:18:39.640Z,29.17
2023-04-18T07:19:39.636Z,29.48
2023-04-18T07:20:39.624Z,29.25
2023-04-18T07:21:39.688Z,29.60
2023-04-18T07:22:39.757Z,29.52
2023-04-18T07:23:39.813Z,29.43
2023-04-18T07:24:39.851Z,29.63
2023-04-18T07:25:39.939Z,29.48
2023-04-18T07:26:39.992Z,29.39
2023-04-18T07:27:40.014Z,29.60
2023-04-18T07:28:40.065Z,28.24
2023-04-18T07:29:40.326Z,29.41
2023-04-18T07:30:40.196Z,28.98
2023-04-18T07:31:40.236Z,29.43
2023-04-18T07:32:40.344Z,29.61
2023-04-18T07:33:40.329Z,29.48
2023-04-18T07:34:40.422Z,29.63
2023-04-18T07:35:40.376Z,29.71
2023-04-18T07:36:40.416Z,29.70
2023-04-18T07:37:40.442Z,29.73
2023-04-18T07:38:40.494Z,29.69
2023-04-18T07:39:40.484Z,29.03
2023-04-18T07:40:40.919Z,29.37
2023-04-18T07:41:40.615Z,29.60
2023-04-18T07:42:40.752Z,29.58
2023-04-18T07:43:40.700Z,29.67
2023-04-18T07:44:40.688Z,29.61
2023-04-18T07:45:40.956Z,29.60
2023-04-18T07:46:40.821Z,29.68
2023-04-18T07:47:40.751Z,29.91
2023-04-18T07:48:40.900Z,30.50
2023-04-18T07:49:40.727Z,30.35
2023-04-18T07:50:40.922Z,30.52
2023-04-18T07:51:40.721Z,30.53
2023-04-18T07:52:40.797Z,30.67
2023-04-18T07:53:41.053Z,30.79
2023-04-18T07:54:40.809Z,31.00
2023-04-18T07:55:41.056Z,30.99
2023-04-18T07:56:40.890Z,31.06
2023-04-18T07:57:40.916Z,31.41
2023-04-18T07:58:40.965Z,31.38
2023-04-18T07:59:41.030Z,31.38
2023-04-18T08:00:41.090Z,31.52
2023-04-18T08:01:41.182Z,31.61
2023-04-18T08:02:41.459Z,31.55
2023-04-18T08:03:41.380Z,31.56
2023-04-18T08:04:41.498Z,31.62
2023-04-18T08:05:41.427Z,31.63
2023-04-18T08:06:41.443Z,31.67
2023-04-18T08:07:41.456Z,31.81
2023-04-18T08:08:41.566Z,31.91
2023-04-18T08:09:41.573Z,31.91
2023-04-18T08:10:41.625Z,31.96
2023-04-18T08:11:41.651Z,32.05
2023-04-18T08:12:41.693Z,32.15
2023-04-18T08:13:41.740Z,32.14
2023-04-18T08:14:41.868Z,32.14
2023-04-18T08:15:41.898Z,32.20
2023-04-18T08:16:42.018Z,32.14
2023-04-18T08:17:42.217Z,32.06
2023-04-18T08:18:42.012Z,32.20
2023-04-18T08:19:42.034Z,32.29
2023-04-18T08:20:42.092Z,32.33
2023-04-18T08:21:42.118Z,32.27
2023-04-18T08:22:57.756Z,32.25
2023-04-18T08:23:43.165Z,32.38
2023-04-18T08:24:57.246Z,32.51
2023-04-18T08:25:43.147Z,32.50
2023-04-18T08:26:42.132Z,32.55
2023-04-18T08:27:42.137Z,32.57
2023-04-18T08:28:43.745Z,32.71
2023-04-18T08:29:42.103Z,32.69
2023-04-18T08:30:42.096Z,32.75
2023-04-18T08:31:42.147Z,32.80
2023-04-18T08:32:42.144Z,32.89
2023-04-18T08:33:42.147Z,33.02
2023-04-18T08:34:42.063Z,33.08
2023-04-18T08:35:42.085Z,33.12
2023-04-18T08:36:42.449Z,33.00
2023-04-18T08:37:42.053Z,33.29
2023-04-18T08:38:42.025Z,33.22
2023-04-18T08:39:42.044Z,33.57
2023-04-18T08:40:42.030Z,33.61
2023-04-18T08:41:42.423Z,33.90
2023-04-18T08:42:42.003Z,33.99
2023-04-18T08:43:42.044Z,34.05
2023-04-18T08:44:42.027Z,33.97
2023-04-18T08:45:42.026Z,30.24
2023-04-18T08:46:42.426Z,29.26
2023-04-18T08:47:42.159Z,29.59
2023-04-18T08:48:41.964Z,30.04
2023-04-18T08:49:41.975Z,30.36
2023-04-18T08:50:41.970Z,29.94
2023-04-18T08:51:42.436Z,30.02
2023-04-18T08:52:41.918Z,31.20
2023-04-18T08:53:41.920Z,31.20
2023-04-18T08:54:41.933Z,30.77
2023-04-18T08:55:41.902Z,28.54
2023-04-18T08:56:41.938Z,29.65
2023-04-18T08:57:41.900Z,28.60
2023-04-18T08:58:41.899Z,28.43
2023-04-18T08:59:43.213Z,28.30
2023-04-18T09:00:41.876Z,28.25
2023-04-18T09:01:41.881Z,28.29
2023-04-18T09:02:42.001Z,28.28
2023-04-18T09:03:41.941Z,28.98
2023-04-18T09:04:41.834Z,28.33
2023-04-18T09:05:42.004Z,28.20
2023-04-18T09:06:41.843Z,28.87
2023-04-18T09:07:41.829Z,28.99
2023-04-18T09:08:41.845Z,29.15
2023-04-18T09:09:41.811Z,29.05
2023-04-18T09:10:41.787Z,30.03
2023-04-18T09:11:41.842Z,30.68
2023-04-18T09:12:41.880Z,30.70
2023-04-18T09:13:41.954Z,30.78
2023-04-18T09:14:41.901Z,30.93
2023-04-18T09:15:41.880Z,31.19
2023-04-18T09:16:41.974Z,31.11
2023-04-18T09:17:41.922Z,31.17
2023-04-18T09:18:43.485Z,31.24
2023-04-18T09:19:41.883Z,31.35
2023-04-18T09:20:41.888Z,31.45
2023-04-18T09:21:41.878Z,31.53
2023-04-18T09:22:41.900Z,31.55
2023-04-18T09:23:41.950Z,31.50
2023-04-18T09:24:41.963Z,31.33
2023-04-18T09:25:43.578Z,31.58
2023-04-18T09:26:42.450Z,31.54
2023-04-18T09:27:42.333Z,31.64
2023-04-18T09:28:42.390Z,31.70
2023-04-18T09:29:42.444Z,31.74
2023-04-18T09:30:42.550Z,31.82
2023-04-18T09:31:42.946Z,31.85
2023-04-18T09:32:42.649Z,31.89
2023-04-18T09:33:42.673Z,31.93
2023-04-18T09:34:42.751Z,31.94
2023-04-18T09:35:42.811Z,31.97
2023-04-18T09:36:43.004Z,32.04
2023-04-18T09:37:42.893Z,32.03
2023-04-18T09:38:42.972Z,32.08
2023-04-18T09:39:43.078Z,32.06
2023-04-18T09:40:43.049Z,32.02
2023-04-18T09:41:43.615Z,31.91
2023-04-18T09:42:43.173Z,32.01
2023-04-18T09:43:43.219Z,31.87
2023-04-18T09:44:43.284Z,31.82
2023-04-18T09:45:43.364Z,31.75
2023-04-18T09:46:46.659Z,31.47
2023-04-18T09:47:43.381Z,31.48
2023-04-18T09:48:43.365Z,31.16
2023-04-18T09:49:43.358Z,31.51
2023-04-18T09:50:43.358Z,31.54
2023-04-18T09:51:43.465Z,31.51
2023-04-18T09:52:43.350Z,31.55
2023-04-18T09:53:43.356Z,31.51
2023-04-18T09:54:43.350Z,31.53
2023-04-18T09:55:43.960Z,31.49
2023-04-18T09:56:43.317Z,31.44
2023-04-18T09:57:43.285Z,31.50
2023-04-18T09:58:43.280Z,31.49
2023-04-18T09:59:43.287Z,31.46
2023-04-18T10:00:44.972Z,31.44
2023-04-18T10:01:43.287Z,31.48
2023-04-18T10:02:43.327Z,31.44
2023-04-18T10:03:43.372Z,31.41
2023-04-18T10:04:43.286Z,31.44
2023-04-18T10:05:43.352Z,31.43
2023-04-18T10:06:43.250Z,31.42
2023-04-18T10:07:43.251Z,31.45
2023-04-18T10:08:43.193Z,31.44
2023-04-18T10:09:43.219Z,31.43
2023-04-18T10:10:43.250Z,31.38
2023-04-18T10:11:43.208Z,31.42
2023-04-18T10:12:43.184Z,31.43
2023-04-18T10:13:43.233Z,31.42
2023-04-18T10:14:43.200Z,31.42
2023-04-18T10:15:44.295Z,31.43
2023-04-18T10:16:43.295Z,31.41
2023-04-18T10:17:56.102Z,31.37
2023-04-18T10:18:44.187Z,31.35
2023-04-18T10:19:44.244Z,31.35
2023-04-18T10:20:43.140Z,31.29
2023-04-18T10:21:43.141Z,31.30
2023-04-18T10:22:43.124Z,31.29
2023-04-18T10:23:43.131Z,31.29
2023-04-18T10:24:43.119Z,31.27
2023-04-18T10:25:43.091Z,31.30
2023-04-18T10:26:43.098Z,31.25
2023-04-18T10:27:43.077Z,31.18
2023-04-18T10:28:43.065Z,31.10
2023-04-18T10:29:43.119Z,31.19
2023-04-18T10:30:43.150Z,31.12
2023-04-18T10:31:43.248Z,31.17
2023-04-18T10:32:43.278Z,31.14
2023-04-18T10:33:43.387Z,31.19
2023-04-18T10:34:43.330Z,31.14
2023-04-18T10:35:43.524Z,30.92
2023-04-18T10:36:43.482Z,30.85
2023-04-18T10:37:43.611Z,31.21
2023-04-18T10:38:43.493Z,31.40
2023-04-18T10:39:43.550Z,31.54
2023-04-18T10:40:43.642Z,31.54
2023-04-18T10:41:43.672Z,31.58
2023-04-18T10:42:43.675Z,31.72
2023-04-18T10:43:43.746Z,31.83
2023-04-18T10:44:43.784Z,31.90
2023-04-18T10:45:43.806Z,32.05
2023-04-18T10:46:43.918Z,32.01
2023-04-18T10:47:44.026Z,32.03
2023-04-18T10:48:43.968Z,32.08
2023-04-18T10:49:43.993Z,32.22
2023-04-18T10:50:44.051Z,32.30
2023-04-18T10:51:44.495Z,32.33
2023-04-18T10:52:44.105Z,32.39
2023-04-18T10:53:44.143Z,32.50
2023-04-18T10:54:44.191Z,32.45
2023-04-18T10:55:44.270Z,32.37
2023-04-18T10:56:44.302Z,32.31
2023-04-18T10:57:44.470Z,32.23
2023-04-18T10:58:44.357Z,32.24
2023-04-18T10:59:44.443Z,32.21
2023-04-18T11:00:44.445Z,32.16
2023-04-18T11:01:44.488Z,32.43
2023-04-18T11:02:44.602Z,32.64
2023-04-18T11:03:44.615Z,32.81
2023-04-18T11:04:44.551Z,32.92
2023-04-18T11:05:44.608Z,33.04
2023-04-18T11:06:44.607Z,33.13
2023-04-18T11:07:44.616Z,33.19
2023-04-18T11:08:44.612Z,33.31
2023-04-18T11:09:45.566Z,33.63
2023-04-18T11:10:44.622Z,33.70
2023-04-18T11:11:44.694Z,33.89
2023-04-18T11:12:45.460Z,34.33
2023-04-18T11:13:44.788Z,34.13
2023-04-18T11:14:44.726Z,34.30
2023-04-18T11:15:44.691Z,34.34
2023-04-18T11:16:44.735Z,34.51
2023-04-18T11:17:44.724Z,34.59
2023-04-18T11:18:44.666Z,34.84
2023-04-18T11:19:44.705Z,35.03
2023-04-18T11:20:44.680Z,35.43
2023-04-18T11:21:44.994Z,35.49
2023-04-18T11:22:44.659Z,36.00
2023-04-18T11:23:44.665Z,35.89
2023-04-18T11:24:44.678Z,35.55
2023-04-18T11:25:44.699Z,35.60
2023-04-18T11:26:44.751Z,35.62
2023-04-18T11:27:44.752Z,35.63
2023-04-18T11:28:44.814Z,35.91
2023-04-18T11:29:44.776Z,36.10
2023-04-18T11:30:44.818Z,35.99
2023-04-18T11:31:45.084Z,36.14
2023-04-18T11:32:44.924Z,36.06
2023-04-18T11:33:44.918Z,35.79
2023-04-18T11:34:44.898Z,35.62
2023-04-18T11:35:44.928Z,35.45
2023-04-18T11:36:44.954Z,35.27
2023-04-18T11:37:45.541Z,35.16
2023-04-18T11:38:45.078Z,34.95
2023-04-18T11:39:45.053Z,34.80
2023-04-18T11:40:45.105Z,34.61
2023-04-18T11:41:45.175Z,34.53
2023-04-18T11:42:45.243Z,34.36
2023-04-18T11:43:45.266Z,34.20
2023-04-18T11:44:45.283Z,34.00
2023-04-18T11:45:45.476Z,33.89
2023-04-18T11:46:45.389Z,33.71
2023-04-18T11:47:45.531Z,33.58
2023-04-18T11:48:45.499Z,33.31
2023-04-18T11:49:45.525Z,33.24
2023-04-18T11:50:45.576Z,33.16
2023-04-18T11:51:45.641Z,33.06
2023-04-18T11:52:45.668Z,32.85
2023-04-18T11:53:45.722Z,32.75
2023-04-18T11:54:45.732Z,32.70
2023-04-18T11:55:45.800Z,32.58
2023-04-18T11:56:45.848Z,32.48
2023-04-18T11:57:45.875Z,32.44
2023-04-18T11:58:45.865Z,32.36
2023-04-18T11:59:45.893Z,32.32
2023-04-18T12:00:45.908Z,32.19
2023-04-18T12:01:46.113Z,31.96
2023-04-18T12:02:46.109Z,31.95
2023-04-18T12:03:46.209Z,31.77
2023-04-18T12:04:46.303Z,31.76
2023-04-18T12:05:46.231Z,31.71
2023-04-18T12:06:46.116Z,31.73
2023-04-18T12:07:46.111Z,31.71
2023-04-18T12:08:46.162Z,31.68
2023-04-18T12:09:46.172Z,31.56
2023-04-18T12:10:46.189Z,31.49
2023-04-18T12:11:46.251Z,31.44
2023-04-18T12:12:46.269Z,31.43
2023-04-18T12:13:46.287Z,31.33
2023-04-18T12:14:46.270Z,31.18
2023-04-18T12:15:46.337Z,31.05
2023-04-18T12:16:46.343Z,31.08
2023-04-18T12:17:46.507Z,31.17
2023-04-18T12:18:46.394Z,31.07
2023-04-18T12:19:47.957Z,30.81
2023-04-18T12:20:46.430Z,30.53
2023-04-18T12:21:46.396Z,30.33
2023-04-18T12:22:46.407Z,30.66
2023-04-18T12:23:46.369Z,30.80
2023-04-18T12:24:46.380Z,30.77
2023-04-18T12:25:46.326Z,30.83
2023-04-18T12:26:46.338Z,30.81
2023-04-18T12:27:46.364Z,30.77
2023-04-18T12:28:46.344Z,30.70
2023-04-18T12:29:46.331Z,30.06
2023-04-18T12:30:46.337Z,30.07
2023-04-18T12:31:46.304Z,30.73
2023-04-18T12:32:46.328Z,31.05
2023-04-18T12:33:46.278Z,31.38
2023-04-18T12:34:46.274Z,31.42
2023-04-18T12:35:47.798Z,31.54
2023-04-18T12:36:46.299Z,31.81
2023-04-18T12:37:46.273Z,31.92
2023-04-18T12:38:46.238Z,32.08
2023-04-18T12:39:46.241Z,32.41
2023-04-18T12:40:46.225Z,32.30
2023-04-18T12:41:47.133Z,32.39
2023-04-18T12:42:46.232Z,32.29
2023-04-18T12:43:46.205Z,32.42
2023-04-18T12:44:47.958Z,32.30
2023-04-18T12:45:46.186Z,32.31
2023-04-18T12:46:46.275Z,32.12
2023-04-18T12:47:46.189Z,31.99
2023-04-18T12:48:46.186Z,31.88
2023-04-18T12:49:46.248Z,31.83
2023-04-18T12:50:46.146Z,31.73
2023-04-18T12:51:46.160Z,31.65
2023-04-18T12:52:46.141Z,31.61